Najran, Saudi Arabia
Current Conditions -  °F | °C
As of 12:00 PM on Monday 20 Oct 2014 (Local Time) from OENG Reporting Station
Clear Clear  
Wind Chill: 90°   Ceiling: Unl
Heat Index: 90°   Visibility: 6mi
Dew Point: 37°   Wind: 7mph
Humidity: 16%   Direction: 90°E
Pressure: 30.03"   Gusts: NA
Location:  17.62°N, 44.42°E
Report Text: OENG 200900Z 09006KT CAVOK 32/03 Q1017 NOSIG
Loading
Personal Weather Stations






























Interactive Weather Map
Tropical Storm Tracking
New forecast layout! Learn more

10-Day Weather Forecast

Advertisements
Track Severe Weather on mobile